Ligon, Kentucky
Current Conditions -  °F | °C
As of 9:15 PM on Sunday 25 Jan 2015 (Local Time) from KPBX Reporting Station
Overcast Overcast  
Wind Chill: 44°   Ceiling: 6500
Heat Index: 44°   Visibility: 10mi
Dew Point: 34°   Wind: 3mph
Humidity: 69%   Direction: 80°E
Pressure: 29.68"   Gusts: NA
Location:  37.3721°N, 82.6871°W
Report Text: KPBX 260215Z AUTO 08003KT 10SM OVC065 07/01 A2968 RMK AO2 T00660012
Loading
Personal Weather Stations






























Interactive Weather Map New forecast layout! Learn more

10-Day Weather Forecast

Advertisements
Track Severe Weather on mobile